Time;durP1;ratioP1;P1;durP2;ratioP2;P2;SDS_P1;SDS_P2;PMS_P1;PMS_P2;Temp;Humidity;BMP_temperature;BMP_pressure;BME280_temperature;BME280_humidity;BME280_pressure;Samples;Min_cycle;Max_cycle;Signal;HPM_P1;HPM_P2
2023/08/31 00:00:13;;;;;;;4.37;2.80;;;;;;;;;;5016087;28;20197;-66
2023/08/31 00:02:41;;;;;;;4.93;2.90;;;;;;;;;;5013895;28;20201;-66
2023/08/31 00:05:09;;;;;;;3.07;2.50;;;;;;;;;;5018651;28;20208;-67
2023/08/31 00:07:36;;;;;;;6.87;3.00;;;;;;;;;;5017230;28;20223;-66
2023/08/31 00:10:09;;;;;;;4.10;2.80;;;;;;;;;;5014451;28;20315;-66
2023/08/31 00:12:36;;;;;;;4.60;2.60;;;;;;;;;;5014678;28;20273;-66
2023/08/31 00:15:04;;;;;;;3.00;2.45;;;;;;;;;;5013424;28;20228;-66
2023/08/31 00:17:31;;;;;;;3.73;2.93;;;;;;;;;;5012634;28;20204;-66
2023/08/31 00:20:00;;;;;;;3.80;2.80;;;;;;;;;;5012385;28;20217;-66
2023/08/31 00:22:28;;;;;;;4.70;3.13;;;;;;;;;;5017979;28;20246;-65
2023/08/31 00:24:55;;;;;;;4.57;3.10;;;;;;;;;;5022107;28;20254;-66
2023/08/31 00:27:24;;;;;;;4.80;3.13;;;;;;;;;;5026885;28;20208;-66
2023/08/31 00:29:51;;;;;;;4.60;3.70;;;;;;;;;;5020460;28;20244;-66
2023/08/31 00:32:22;;;;;;;6.27;3.90;;;;;;;;;;5018801;28;20213;-66
2023/08/31 00:34:49;;;;;;;4.17;3.77;;;;;;;;;;5021452;28;20272;-67
2023/08/31 00:37:18;;;;;;;4.57;3.20;;;;;;;;;;5025568;28;20210;-71
2023/08/31 00:39:45;;;;;;;4.97;3.83;;;;;;;;;;5020131;28;20212;-66
2023/08/31 00:42:12;;;;;;;5.27;3.83;;;;;;;;;;5020584;28;20204;-66
2023/08/31 00:44:41;;;;;;;6.22;4.57;;;;;;;;;;5020039;28;20232;-66
2023/08/31 00:47:08;;;;;;;5.97;4.35;;;;;;;;;;5020044;28;20196;-66
2023/08/31 00:49:35;;;;;;;7.40;4.30;;;;;;;;;;5016508;28;20210;-65
2023/08/31 00:52:02;;;;;;;5.50;4.37;;;;;;;;;;5015253;28;20205;-66
2023/08/31 00:54:31;;;;;;;8.65;4.78;;;;;;;;;;5017822;28;20209;-66
2023/08/31 00:56:58;;;;;;;6.97;5.05;;;;;;;;;;5015661;28;20287;-66
2023/08/31 00:59:26;;;;;;;5.33;4.83;;;;;;;;;;5018437;28;20210;-66
2023/08/31 01:01:58;;;;;;;4.23;3.60;;;;;;;;;;5019458;28;20208;-66
2023/08/31 01:04:28;;;;;;;6.10;4.27;;;;;;;;;;5016351;28;20209;-66
2023/08/31 01:06:58;;;;;;;6.63;4.73;;;;;;;;;;5014851;28;20201;-65
2023/08/31 01:09:30;;;;;;;6.47;5.10;;;;;;;;;;5022448;28;20235;-67
2023/08/31 01:12:01;;;;;;;6.20;4.50;;;;;;;;;;5023268;28;20204;-66
2023/08/31 01:14:33;;;;;;;8.03;4.73;;;;;;;;;;5022550;28;20255;-66
2023/08/31 01:17:01;;;;;;;7.70;4.00;;;;;;;;;;5023512;28;20208;-66
2023/08/31 01:19:36;;;;;;;6.60;4.27;;;;;;;;;;5020577;28;20207;-66
2023/08/31 01:22:08;;;;;;;6.43;4.30;;;;;;;;;;5025892;28;20234;-65
2023/08/31 01:24:37;;;;;;;5.27;3.77;;;;;;;;;;5018007;28;20215;-66
2023/08/31 01:27:04;;;;;;;5.80;4.00;;;;;;;;;;5025348;28;20209;-65
2023/08/31 01:29:31;;;;;;;5.50;3.90;;;;;;;;;;5021830;28;20234;-66
2023/08/31 01:31:58;;;;;;;6.43;3.73;;;;;;;;;;5019638;28;20201;-66
2023/08/31 01:34:26;;;;;;;9.20;3.97;;;;;;;;;;5023792;28;20208;-66
2023/08/31 01:36:54;;;;;;;6.93;4.23;;;;;;;;;;5019941;28;20397;-66
2023/08/31 01:39:28;;;;;;;4.13;3.37;;;;;;;;;;5019499;28;20232;-66
2023/08/31 01:41:58;;;;;;;5.10;3.60;;;;;;;;;;5018986;28;20205;-66
2023/08/31 01:44:26;;;;;;;6.33;4.13;;;;;;;;;;5018784;28;20204;-66
2023/08/31 01:46:54;;;;;;;4.47;3.07;;;;;;;;;;5019129;28;20208;-65
2023/08/31 01:49:21;;;;;;;5.70;3.20;;;;;;;;;;5014545;28;20224;-72
2023/08/31 01:51:49;;;;;;;5.07;3.40;;;;;;;;;;5017778;28;20208;-70
2023/08/31 01:54:16;;;;;;;11.13;3.63;;;;;;;;;;5020781;28;20210;-71
2023/08/31 01:56:43;;;;;;;8.40;3.73;;;;;;;;;;5014857;28;20211;-71
2023/08/31 01:59:12;;;;;;;4.50;3.57;;;;;;;;;;5018599;28;20236;-70
2023/08/31 02:01:39;;;;;;;6.10;3.53;;;;;;;;;;5012714;28;20222;-71
2023/08/31 02:04:06;;;;;;;6.23;3.47;;;;;;;;;;5018672;28;20207;-71
2023/08/31 02:06:33;;;;;;;5.17;2.80;;;;;;;;;;5015601;28;20201;-72
2023/08/31 02:09:00;;;;;;;7.70;3.60;;;;;;;;;;5013466;28;20236;-72
2023/08/31 02:11:28;;;;;;;6.93;3.10;;;;;;;;;;5021845;28;20227;-70
2023/08/31 02:13:55;;;;;;;3.20;2.80;;;;;;;;;;5012562;28;20209;-70
2023/08/31 02:16:23;;;;;;;4.73;2.73;;;;;;;;;;5016425;28;20204;-71
2023/08/31 02:18:50;;;;;;;5.90;3.00;;;;;;;;;;5012499;28;20205;-71
2023/08/31 02:21:17;;;;;;;4.93;2.40;;;;;;;;;;5019429;28;20200;-72
2023/08/31 02:23:45;;;;;;;6.30;3.20;;;;;;;;;;5014350;28;20266;-71
2023/08/31 02:26:15;;;;;;;6.03;2.83;;;;;;;;;;5018975;28;20290;-72
2023/08/31 02:28:42;;;;;;;4.53;3.00;;;;;;;;;;5013494;28;20235;-71
2023/08/31 02:31:12;;;;;;;7.80;3.30;;;;;;;;;;5011808;28;20208;-71
2023/08/31 02:33:40;;;;;;;7.80;3.10;;;;;;;;;;5016071;28;20230;-71
2023/08/31 02:36:10;;;;;;;5.60;3.10;;;;;;;;;;5016882;28;20196;-72
2023/08/31 02:38:37;;;;;;;7.33;3.47;;;;;;;;;;5016171;28;20221;-72
2023/08/31 02:41:04;;;;;;;5.83;3.33;;;;;;;;;;5014822;28;20208;-71
2023/08/31 02:43:31;;;;;;;7.00;3.00;;;;;;;;;;5021196;28;20210;-71
2023/08/31 02:46:02;;;;;;;5.00;3.40;;;;;;;;;;5013284;28;20208;-72
2023/08/31 02:48:29;;;;;;;5.70;3.23;;;;;;;;;;5012607;28;20354;-72
2023/08/31 02:51:00;;;;;;;6.07;3.43;;;;;;;;;;5011645;28;20201;-72
2023/08/31 02:53:27;;;;;;;7.27;3.33;;;;;;;;;;5011931;28;20220;-72
2023/08/31 02:55:54;;;;;;;5.47;3.00;;;;;;;;;;5021438;28;20227;-71
2023/08/31 02:58:22;;;;;;;10.07;3.67;;;;;;;;;;5018734;28;20232;-67
2023/08/31 03:00:49;;;;;;;6.70;3.57;;;;;;;;;;5024057;28;20200;-67
2023/08/31 03:03:17;;;;;;;5.87;2.90;;;;;;;;;;5025555;28;20210;-66
2023/08/31 03:05:44;;;;;;;6.43;2.97;;;;;;;;;;5014989;28;20200;-68
2023/08/31 03:08:12;;;;;;;4.83;3.07;;;;;;;;;;5021987;28;20208;-66
2023/08/31 03:10:40;;;;;;;6.27;2.93;;;;;;;;;;5026717;28;20230;-66
2023/08/31 03:13:07;;;;;;;6.67;3.50;;;;;;;;;;5024113;28;20201;-67
2023/08/31 03:15:34;;;;;;;8.37;3.47;;;;;;;;;;5022607;28;20216;-66
2023/08/31 03:18:02;;;;;;;6.60;3.27;;;;;;;;;;5020909;28;20432;-66
2023/08/31 03:20:29;;;;;;;6.53;3.60;;;;;;;;;;5024453;28;20254;-66
2023/08/31 03:22:56;;;;;;;5.70;3.07;;;;;;;;;;5020977;28;20211;-66
2023/08/31 03:25:25;;;;;;;4.87;3.43;;;;;;;;;;5020239;28;20212;-66
2023/08/31 03:27:52;;;;;;;5.80;3.37;;;;;;;;;;5016659;28;20267;-67
2023/08/31 03:30:19;;;;;;;10.03;4.13;;;;;;;;;;5020624;28;20329;-67
2023/08/31 03:32:46;;;;;;;5.17;3.40;;;;;;;;;;5022410;28;20290;-67
2023/08/31 03:35:13;;;;;;;5.20;3.60;;;;;;;;;;5019282;28;20216;-67
2023/08/31 03:37:40;;;;;;;6.00;3.50;;;;;;;;;;5014690;28;20215;-67
2023/08/31 03:40:09;;;;;;;12.77;4.13;;;;;;;;;;5017590;28;20205;-66
2023/08/31 03:42:37;;;;;;;8.77;3.80;;;;;;;;;;5015728;28;20208;-67
2023/08/31 03:45:07;;;;;;;5.60;3.97;;;;;;;;;;5013447;28;20208;-67
2023/08/31 03:47:34;;;;;;;5.33;3.60;;;;;;;;;;5016534;28;20212;-66
2023/08/31 03:50:01;;;;;;;6.07;3.83;;;;;;;;;;5021860;28;20235;-67
2023/08/31 03:52:28;;;;;;;7.80;3.47;;;;;;;;;;5018807;28;20196;-67
2023/08/31 03:54:55;;;;;;;7.27;3.23;;;;;;;;;;5016216;28;20204;-67
2023/08/31 03:57:22;;;;;;;6.50;3.40;;;;;;;;;;5017587;28;20274;-67
2023/08/31 03:59:51;;;;;;;6.13;3.50;;;;;;;;;;5020026;28;20208;-66
2023/08/31 04:02:18;;;;;;;7.83;3.63;;;;;;;;;;5022133;28;20208;-66
2023/08/31 04:04:45;;;;;;;7.27;3.73;;;;;;;;;;5023616;28;20200;-67
2023/08/31 04:07:12;;;;;;;6.47;3.70;;;;;;;;;;5017713;28;20212;-67
2023/08/31 04:09:39;;;;;;;6.87;3.50;;;;;;;;;;5020257;28;20232;-72
2023/08/31 04:12:07;;;;;;;5.50;3.50;;;;;;;;;;5019812;28;20207;-72
2023/08/31 04:14:34;;;;;;;6.70;3.43;;;;;;;;;;5014300;28;20197;-72
2023/08/31 04:17:04;;;;;;;7.13;3.47;;;;;;;;;;5019694;28;20196;-71
2023/08/31 04:19:34;;;;;;;5.53;3.40;;;;;;;;;;5015136;28;20232;-72
2023/08/31 04:22:01;;;;;;;6.83;3.73;;;;;;;;;;5018936;28;20266;-73
2023/08/31 04:24:28;;;;;;;8.87;3.50;;;;;;;;;;5022099;28;20204;-73
2023/08/31 04:26:57;;;;;;;7.27;3.23;;;;;;;;;;5020425;28;20213;-72
2023/08/31 04:29:24;;;;;;;7.47;3.87;;;;;;;;;;5020108;28;20220;-72
2023/08/31 04:31:52;;;;;;;7.17;3.47;;;;;;;;;;5021827;28;20207;-73
2023/08/31 04:34:20;;;;;;;6.60;3.60;;;;;;;;;;5017936;28;20209;-73
2023/08/31 04:36:48;;;;;;;7.27;3.70;;;;;;;;;;5018091;28;20209;-73
2023/08/31 04:39:15;;;;;;;10.10;4.27;;;;;;;;;;5020637;28;20214;-72
2023/08/31 04:41:42;;;;;;;6.73;3.13;;;;;;;;;;5019368;28;20266;-71
2023/08/31 04:44:10;;;;;;;7.60;3.53;;;;;;;;;;5018289;28;20210;-72
2023/08/31 04:46:37;;;;;;;7.87;3.73;;;;;;;;;;5022773;28;20219;-73
2023/08/31 04:49:05;;;;;;;8.83;3.70;;;;;;;;;;5019559;28;20213;-72
2023/08/31 04:51:34;;;;;;;6.37;3.30;;;;;;;;;;5016440;28;20244;-71
2023/08/31 04:54:02;;;;;;;5.90;3.37;;;;;;;;;;5016378;28;20291;-71
2023/08/31 04:56:33;;;;;;;4.83;3.50;;;;;;;;;;5021833;28;20208;-73
2023/08/31 04:59:00;;;;;;;6.90;3.57;;;;;;;;;;5017464;28;20239;-72
2023/08/31 05:01:27;;;;;;;6.37;3.17;;;;;;;;;;5016529;28;20215;-72
2023/08/31 05:03:54;;;;;;;5.70;3.80;;;;;;;;;;5018147;28;20237;-72
2023/08/31 05:06:22;;;;;;;4.87;3.30;;;;;;;;;;5013825;28;20205;-70
2023/08/31 05:08:51;;;;;;;4.90;3.63;;;;;;;;;;5019531;28;20209;-72
2023/08/31 05:11:21;;;;;;;8.73;3.90;;;;;;;;;;5021363;28;20220;-70
2023/08/31 05:13:48;;;;;;;5.67;3.70;;;;;;;;;;5023596;28;20203;-72
2023/08/31 05:16:16;;;;;;;8.43;3.60;;;;;;;;;;5017714;28;20205;-71
2023/08/31 05:18:43;;;;;;;4.67;3.30;;;;;;;;;;5016867;28;20208;-72
2023/08/31 05:21:10;;;;;;;7.10;3.53;;;;;;;;;;5018289;28;20208;-71
2023/08/31 05:23:37;;;;;;;6.97;3.60;;;;;;;;;;5019135;28;20201;-71
2023/08/31 05:26:06;;;;;;;7.47;3.60;;;;;;;;;;5019057;28;20231;-72
2023/08/31 05:28:33;;;;;;;5.53;3.20;;;;;;;;;;5023512;28;20264;-71
2023/08/31 05:31:02;;;;;;;6.47;3.63;;;;;;;;;;5019635;28;20238;-72
2023/08/31 05:33:33;;;;;;;7.20;3.50;;;;;;;;;;5021486;28;20205;-71
2023/08/31 05:36:02;;;;;;;9.03;4.03;;;;;;;;;;5020306;28;20255;-72
2023/08/31 05:38:29;;;;;;;6.77;3.53;;;;;;;;;;5019363;28;20207;-73
2023/08/31 05:40:56;;;;;;;5.30;3.40;;;;;;;;;;5019980;28;20219;-72
2023/08/31 05:43:24;;;;;;;8.00;3.40;;;;;;;;;;5021160;28;20271;-72
2023/08/31 05:45:52;;;;;;;7.63;3.30;;;;;;;;;;5015559;28;20202;-71
2023/08/31 05:48:19;;;;;;;6.73;3.33;;;;;;;;;;5012750;28;20211;-73
2023/08/31 05:50:48;;;;;;;7.37;3.33;;;;;;;;;;5017208;28;20216;-72
2023/08/31 05:53:15;;;;;;;5.80;3.03;;;;;;;;;;5019716;28;20220;-72
2023/08/31 05:55:43;;;;;;;6.47;3.20;;;;;;;;;;5011433;28;20204;-70
2023/08/31 05:58:10;;;;;;;6.03;3.23;;;;;;;;;;5005841;28;20254;-72
2023/08/31 06:00:39;;;;;;;6.03;3.40;;;;;;;;;;5009388;28;20208;-72
2023/08/31 06:03:07;;;;;;;7.33;3.50;;;;;;;;;;5017574;28;20200;-72
2023/08/31 06:05:35;;;;;;;6.17;3.23;;;;;;;;;;5015132;28;20204;-72
2023/08/31 06:08:03;;;;;;;6.60;2.90;;;;;;;;;;5015674;28;20215;-70
2023/08/31 06:10:31;;;;;;;5.03;3.03;;;;;;;;;;5014471;28;20278;-71
2023/08/31 06:12:58;;;;;;;6.53;3.20;;;;;;;;;;5010853;28;20212;-71
2023/08/31 06:15:26;;;;;;;6.90;3.20;;;;;;;;;;5014320;28;20258;-72
2023/08/31 06:17:55;;;;;;;6.60;3.40;;;;;;;;;;5012423;28;20207;-72
2023/08/31 06:20:24;;;;;;;8.20;3.37;;;;;;;;;;5014011;28;20288;-71
2023/08/31 06:22:52;;;;;;;4.70;3.07;;;;;;;;;;5016629;28;20212;-71
2023/08/31 06:25:22;;;;;;;5.90;3.13;;;;;;;;;;5018065;28;20233;-71
2023/08/31 06:27:49;;;;;;;6.47;3.33;;;;;;;;;;5018512;28;20204;-70
2023/08/31 06:30:16;;;;;;;6.50;3.00;;;;;;;;;;5018530;28;20220;-66
2023/08/31 06:32:44;;;;;;;4.33;3.00;;;;;;;;;;5017843;28;20302;-66
2023/08/31 06:35:13;;;;;;;8.43;3.10;;;;;;;;;;5024275;28;20239;-66
2023/08/31 06:37:40;;;;;;;8.63;3.23;;;;;;;;;;5018397;28;20211;-66
2023/08/31 06:40:09;;;;;;;7.30;3.27;;;;;;;;;;5012116;28;20209;-66
2023/08/31 06:42:36;;;;;;;5.73;3.20;;;;;;;;;;5016996;28;20200;-66
2023/08/31 06:45:03;;;;;;;5.80;2.70;;;;;;;;;;5013067;28;20268;-66
2023/08/31 06:47:30;;;;;;;4.23;3.30;;;;;;;;;;5017429;28;20381;-67
2023/08/31 06:49:58;;;;;;;5.43;3.37;;;;;;;;;;5014226;28;20210;-66
2023/08/31 06:52:27;;;;;;;6.17;2.93;;;;;;;;;;5013255;28;20201;-66
2023/08/31 06:54:55;;;;;;;8.60;3.20;;;;;;;;;;5012471;28;20209;-66
2023/08/31 06:57:22;;;;;;;4.73;3.00;;;;;;;;;;5012423;28;20232;-67
2023/08/31 06:59:49;;;;;;;5.03;3.10;;;;;;;;;;5015221;28;20208;-67
2023/08/31 07:02:18;;;;;;;6.23;2.90;;;;;;;;;;5018517;28;20209;-66
2023/08/31 07:04:48;;;;;;;5.80;2.87;;;;;;;;;;5016214;28;20216;-65
2023/08/31 07:07:15;;;;;;;5.63;3.10;;;;;;;;;;5011424;28;20200;-67
2023/08/31 07:09:45;;;;;;;6.20;2.87;;;;;;;;;;5010685;28;20204;-66
2023/08/31 07:12:12;;;;;;;6.70;3.00;;;;;;;;;;5016802;28;20468;-65
2023/08/31 07:14:40;;;;;;;5.53;2.90;;;;;;;;;;5014349;28;20200;-65
2023/08/31 07:17:07;;;;;;;6.27;3.00;;;;;;;;;;5021830;28;20220;-65
2023/08/31 07:19:36;;;;;;;6.67;3.33;;;;;;;;;;5017240;28;20215;-67
2023/08/31 07:22:06;;;;;;;3.87;3.00;;;;;;;;;;5022812;28;20204;-66
2023/08/31 07:24:34;;;;;;;9.27;3.63;;;;;;;;;;5016937;28;20201;-66
2023/08/31 07:27:03;;;;;;;4.63;2.73;;;;;;;;;;5016483;28;20201;-66
2023/08/31 07:29:30;;;;;;;5.33;2.80;;;;;;;;;;5020524;28;20200;-65
2023/08/31 07:31:57;;;;;;;6.43;2.83;;;;;;;;;;5019430;28;20228;-65
2023/08/31 07:34:24;;;;;;;6.87;3.03;;;;;;;;;;5020394;28;20208;-65
2023/08/31 07:36:51;;;;;;;5.50;2.90;;;;;;;;;;5022341;28;20204;-65
2023/08/31 07:39:20;;;;;;;8.50;2.77;;;;;;;;;;5018441;28;20204;-68
2023/08/31 07:41:47;;;;;;;5.30;2.83;;;;;;;;;;5019722;28;20196;-68
2023/08/31 07:44:16;;;;;;;7.13;2.77;;;;;;;;;;5016318;28;20212;-68
2023/08/31 07:46:43;;;;;;;5.87;3.07;;;;;;;;;;5018070;28;20211;-64
2023/08/31 07:49:10;;;;;;;6.70;3.30;;;;;;;;;;5027032;28;20208;-65
2023/08/31 07:51:37;;;;;;;7.93;3.07;;;;;;;;;;5020415;28;20231;-64
2023/08/31 07:54:04;;;;;;;5.87;2.80;;;;;;;;;;5023834;28;20204;-66
2023/08/31 07:56:31;;;;;;;8.02;4.43;;;;;;;;;;5018479;28;20204;-65
2023/08/31 07:58:58;;;;;;;5.75;2.63;;;;;;;;;;5017222;28;20238;-65
2023/08/31 08:01:27;;;;;;;8.27;2.73;;;;;;;;;;5022979;28;20212;-65
2023/08/31 08:03:54;;;;;;;6.60;3.05;;;;;;;;;;5020351;28;20283;-65
2023/08/31 08:06:21;;;;;;;6.50;2.80;;;;;;;;;;5023889;28;20196;-65
2023/08/31 08:08:48;;;;;;;4.10;2.72;;;;;;;;;;5015469;28;20205;-64
2023/08/31 08:11:15;;;;;;;8.80;2.65;;;;;;;;;;5023439;28;20224;-65
2023/08/31 08:13:42;;;;;;;4.65;2.60;;;;;;;;;;5016494;28;20207;-65
2023/08/31 08:16:09;;;;;;;4.57;2.63;;;;;;;;;;5021301;28;20210;-64
2023/08/31 08:18:38;;;;;;;6.47;3.00;;;;;;;;;;5018701;28;20215;-64
2023/08/31 08:21:05;;;;;;;6.85;2.80;;;;;;;;;;5019657;28;20193;-64
2023/08/31 08:23:32;;;;;;;5.38;2.33;;;;;;;;;;5017474;28;20207;-64
2023/08/31 08:26:00;;;;;;;5.47;2.83;;;;;;;;;;5020836;28;20205;-65
2023/08/31 08:28:28;;;;;;;5.85;2.83;;;;;;;;;;5024799;28;20204;-66
2023/08/31 08:30:55;;;;;;;5.78;2.67;;;;;;;;;;5018383;28;20298;-64
2023/08/31 08:33:22;;;;;;;6.05;3.58;;;;;;;;;;5020149;28;20197;-64
2023/08/31 08:35:51;;;;;;;6.95;2.80;;;;;;;;;;5021107;28;20204;-65
2023/08/31 08:38:18;;;;;;;5.13;2.40;;;;;;;;;;5024540;28;20211;-65
2023/08/31 08:40:45;;;;;;;9.88;2.47;;;;;;;;;;5020045;28;20214;-64
2023/08/31 08:43:12;;;;;;;5.15;2.47;;;;;;;;;;5016094;28;20204;-64
2023/08/31 08:45:41;;;;;;;5.75;2.47;;;;;;;;;;5014951;28;20205;-65
2023/08/31 08:48:08;;;;;;;5.90;2.40;;;;;;;;;;5019197;28;20215;-69
2023/08/31 08:50:36;;;;;;;4.93;2.47;;;;;;;;;;5014794;28;20201;-68
2023/08/31 08:53:06;;;;;;;5.45;2.55;;;;;;;;;;5018924;28;20196;-68
2023/08/31 08:55:34;;;;;;;5.13;2.30;;;;;;;;;;5015035;28;20221;-68
2023/08/31 08:58:03;;;;;;;4.57;2.30;;;;;;;;;;5019037;28;20238;-68
2023/08/31 09:00:31;;;;;;;5.70;2.38;;;;;;;;;;5015442;28;20203;-68
2023/08/31 09:02:58;;;;;;;5.90;2.28;;;;;;;;;;5019567;28;20204;-69
2023/08/31 09:05:25;;;;;;;4.28;2.33;;;;;;;;;;5018164;28;20233;-68
2023/08/31 09:08:09;;;;;;;5.22;2.30;;;;;;;;;;5017691;28;20209;-70
2023/08/31 09:10:39;;;;;;;5.32;2.33;;;;;;;;;;5019059;28;20250;-69
2023/08/31 09:13:06;;;;;;;4.13;2.03;;;;;;;;;;5023458;28;20220;-67
2023/08/31 09:15:43;;;;;;;4.57;2.50;;;;;;;;;;5024539;28;20211;-70
2023/08/31 09:18:15;;;;;;;3.70;2.38;;;;;;;;;;5020793;28;20291;-69
2023/08/31 09:20:45;;;;;;;5.07;2.40;;;;;;;;;;5019255;28;20205;-69
2023/08/31 09:23:13;;;;;;;4.78;2.40;;;;;;;;;;5018013;28;20212;-69
2023/08/31 09:25:43;;;;;;;2.70;2.17;;;;;;;;;;5017568;28;20272;-70
2023/08/31 09:28:10;;;;;;;5.38;2.13;;;;;;;;;;5017547;28;20212;-69
2023/08/31 09:30:37;;;;;;;4.10;2.28;;;;;;;;;;5018748;28;20215;-68
2023/08/31 09:33:05;;;;;;;5.75;2.30;;;;;;;;;;5021821;28;20220;-69
2023/08/31 09:35:32;;;;;;;4.38;2.00;;;;;;;;;;5018758;28;20208;-69
2023/08/31 09:37:59;;;;;;;4.43;2.00;;;;;;;;;;5017889;28;20201;-69
2023/08/31 09:40:28;;;;;;;5.68;2.78;;;;;;;;;;5016833;28;20244;-69
2023/08/31 09:42:55;;;;;;;6.07;2.80;;;;;;;;;;5017361;28;20211;-69
2023/08/31 09:45:27;;;;;;;4.50;2.40;;;;;;;;;;5014316;28;20255;-69
2023/08/31 09:47:54;;;;;;;5.53;2.53;;;;;;;;;;5024993;28;20213;-69
2023/08/31 09:50:22;;;;;;;8.07;2.90;;;;;;;;;;5022678;28;20208;-69
2023/08/31 09:52:49;;;;;;;5.05;2.47;;;;;;;;;;5016519;28;20221;-70
2023/08/31 09:55:20;;;;;;;5.65;2.78;;;;;;;;;;5017594;28;20209;-70
2023/08/31 09:57:49;;;;;;;3.13;2.22;;;;;;;;;;5021962;28;20236;-70
2023/08/31 10:00:18;;;;;;;5.70;2.47;;;;;;;;;;5020427;28;20196;-65
2023/08/31 10:02:47;;;;;;;5.65;2.33;;;;;;;;;;5019087;28;20209;-65
2023/08/31 10:05:15;;;;;;;4.97;2.25;;;;;;;;;;5021946;28;20200;-64
2023/08/31 10:07:43;;;;;;;6.53;2.28;;;;;;;;;;5023479;28;20205;-64
2023/08/31 10:10:10;;;;;;;7.60;2.80;;;;;;;;;;5018780;28;20200;-65
2023/08/31 10:12:38;;;;;;;4.97;2.35;;;;;;;;;;5022725;28;20232;-64
2023/08/31 10:15:08;;;;;;;6.05;2.05;;;;;;;;;;5019803;28;20235;-65
2023/08/31 10:17:35;;;;;;;5.30;2.60;;;;;;;;;;5016826;28;20210;-65
2023/08/31 10:20:03;;;;;;;6.75;2.67;;;;;;;;;;5020286;28;20218;-65
2023/08/31 10:22:30;;;;;;;8.18;2.20;;;;;;;;;;5023504;28;20200;-65
2023/08/31 10:25:01;;;;;;;6.25;2.25;;;;;;;;;;5020617;28;20208;-64
2023/08/31 10:27:28;;;;;;;4.60;2.15;;;;;;;;;;5020349;28;20212;-64
2023/08/31 10:29:56;;;;;;;4.85;2.28;;;;;;;;;;5022353;28;20207;-66
2023/08/31 10:32:24;;;;;;;6.18;2.60;;;;;;;;;;5013750;28;20204;-65
2023/08/31 10:35:07;;;;;;;6.55;2.38;;;;;;;;;;5013150;28;20232;-64
2023/08/31 10:37:34;;;;;;;5.07;2.22;;;;;;;;;;5014019;28;20419;-65
2023/08/31 10:40:08;;;;;;;4.15;2.08;;;;;;;;;;5009269;28;20200;-65
2023/08/31 10:42:42;;;;;;;4.20;2.08;;;;;;;;;;5014195;28;20223;-65
2023/08/31 10:45:10;;;;;;;5.15;2.28;;;;;;;;;;5016103;28;20202;-65
2023/08/31 10:47:42;;;;;;;4.70;2.00;;;;;;;;;;5014960;28;20211;-66
2023/08/31 10:50:19;;;;;;;3.78;1.65;;;;;;;;;;5020729;28;20205;-65
2023/08/31 10:52:46;;;;;;;6.25;1.95;;;;;;;;;;5016925;28;20216;-65
2023/08/31 10:55:13;;;;;;;4.13;1.80;;;;;;;;;;5016246;28;20211;-65
2023/08/31 10:57:41;;;;;;;4.32;2.00;;;;;;;;;;5013864;28;20243;-65
2023/08/31 11:00:10;;;;;;;4.43;2.03;;;;;;;;;;5015844;28;20282;-65
2023/08/31 11:02:38;;;;;;;2.95;1.73;;;;;;;;;;5014340;28;20197;-64
2023/08/31 11:05:10;;;;;;;7.00;2.20;;;;;;;;;;5013308;28;20208;-65
2023/08/31 11:07:38;;;;;;;4.28;1.70;;;;;;;;;;5017213;28;20210;-65
2023/08/31 11:10:09;;;;;;;3.47;1.75;;;;;;;;;;5010809;28;20577;-65
2023/08/31 11:12:37;;;;;;;5.35;2.00;;;;;;;;;;5017265;28;20545;-64
2023/08/31 11:15:04;;;;;;;5.53;2.03;;;;;;;;;;5016393;28;20196;-65
2023/08/31 11:17:32;;;;;;;4.63;1.88;;;;;;;;;;5018648;28;20201;-64
2023/08/31 11:19:59;;;;;;;4.03;2.08;;;;;;;;;;5016980;28;20208;-65
2023/08/31 11:22:28;;;;;;;3.30;1.90;;;;;;;;;;5016481;28;20215;-64
2023/08/31 11:24:55;;;;;;;3.95;2.03;;;;;;;;;;5010405;28;20233;-65
2023/08/31 11:27:22;;;;;;;3.78;1.75;;;;;;;;;;5014292;28;20209;-64
2023/08/31 11:29:50;;;;;;;4.72;1.80;;;;;;;;;;5012786;28;20205;-64
2023/08/31 11:32:17;;;;;;;5.32;2.00;;;;;;;;;;5015217;28;20217;-64
2023/08/31 11:34:45;;;;;;;4.57;1.95;;;;;;;;;;5019062;28;20224;-63
2023/08/31 11:37:15;;;;;;;5.20;1.80;;;;;;;;;;5012271;28;20219;-63
2023/08/31 11:39:44;;;;;;;4.20;1.90;;;;;;;;;;5017753;28;20320;-65
2023/08/31 11:42:11;;;;;;;2.35;1.63;;;;;;;;;;5019380;28;20192;-66
2023/08/31 11:44:38;;;;;;;4.15;1.70;;;;;;;;;;5019347;28;20204;-64
2023/08/31 11:47:05;;;;;;;3.47;1.55;;;;;;;;;;5018654;28;20211;-67
2023/08/31 11:49:32;;;;;;;6.43;2.10;;;;;;;;;;5005492;28;20227;-64
2023/08/31 11:52:00;;;;;;;4.03;1.77;;;;;;;;;;4996445;28;20222;-66
2023/08/31 11:54:27;;;;;;;5.43;1.83;;;;;;;;;;4994881;28;20213;-64
2023/08/31 11:56:56;;;;;;;4.28;1.63;;;;;;;;;;4998972;28;20201;-63
2023/08/31 11:59:26;;;;;;;4.05;1.95;;;;;;;;;;5002644;28;20205;-64
2023/08/31 12:01:53;;;;;;;6.18;2.03;;;;;;;;;;5000410;28;20205;-64
2023/08/31 12:04:22;;;;;;;5.88;1.98;;;;;;;;;;5000606;28;20205;-64
2023/08/31 12:06:51;;;;;;;4.55;1.95;;;;;;;;;;5002286;28;20204;-65
2023/08/31 12:09:18;;;;;;;4.20;1.90;;;;;;;;;;4998460;28;20207;-64
2023/08/31 12:11:51;;;;;;;3.90;2.13;;;;;;;;;;4993686;28;20204;-64
2023/08/31 12:14:22;;;;;;;3.47;1.60;;;;;;;;;;4997684;28;20292;-64
2023/08/31 12:16:49;;;;;;;3.65;1.60;;;;;;;;;;4999650;28;20466;-63
2023/08/31 12:19:17;;;;;;;5.65;1.98;;;;;;;;;;5000559;28;20303;-68
2023/08/31 12:21:44;;;;;;;5.40;1.95;;;;;;;;;;5002740;28;20204;-69
2023/08/31 12:24:12;;;;;;;3.92;2.10;;;;;;;;;;5000678;28;20205;-68
2023/08/31 12:26:39;;;;;;;4.80;2.10;;;;;;;;;;4999670;28;20205;-68
2023/08/31 12:29:06;;;;;;;5.35;1.88;;;;;;;;;;5004733;28;20209;-69
2023/08/31 12:31:35;;;;;;;3.92;2.00;;;;;;;;;;5007634;28;20208;-69
2023/08/31 12:34:05;;;;;;;4.43;2.20;;;;;;;;;;5002920;28;20225;-68
2023/08/31 12:36:33;;;;;;;3.58;2.00;;;;;;;;;;5003233;28;20229;-67
2023/08/31 12:39:01;;;;;;;5.53;2.25;;;;;;;;;;5001498;28;20297;-67
2023/08/31 12:41:28;;;;;;;4.45;2.15;;;;;;;;;;5003499;28;20293;-70
2023/08/31 12:43:56;;;;;;;3.80;1.85;;;;;;;;;;5001269;28;20210;-67
2023/08/31 12:46:23;;;;;;;4.97;2.17;;;;;;;;;;5001414;28;20297;-68
2023/08/31 12:48:52;;;;;;;5.20;2.03;;;;;;;;;;5001037;28;20213;-68
2023/08/31 12:51:19;;;;;;;3.95;2.03;;;;;;;;;;5000655;28;20209;-69
2023/08/31 12:53:48;;;;;;;5.72;2.08;;;;;;;;;;5002590;28;20212;-67
2023/08/31 12:56:21;;;;;;;7.13;2.42;;;;;;;;;;4996936;28;20200;-68
2023/08/31 12:58:48;;;;;;;4.68;2.15;;;;;;;;;;4999025;28;20244;-68
2023/08/31 13:01:15;;;;;;;3.95;1.90;;;;;;;;;;4993899;28;20204;-68
2023/08/31 13:03:43;;;;;;;2.83;1.83;;;;;;;;;;4994394;28;20201;-68
2023/08/31 13:06:11;;;;;;;4.82;2.17;;;;;;;;;;5000656;28;20202;-68
2023/08/31 13:08:38;;;;;;;5.03;2.30;;;;;;;;;;4995019;28;20209;-68
2023/08/31 13:11:06;;;;;;;5.05;2.28;;;;;;;;;;4995323;28;20206;-67
2023/08/31 13:13:34;;;;;;;3.50;2.10;;;;;;;;;;4992944;28;20303;-67
2023/08/31 13:16:02;;;;;;;8.00;2.60;;;;;;;;;;5000020;28;20213;-68
2023/08/31 13:18:29;;;;;;;4.55;2.30;;;;;;;;;;4991359;28;20211;-68
2023/08/31 13:20:57;;;;;;;5.60;2.50;;;;;;;;;;4995552;28;20204;-68
2023/08/31 13:23:26;;;;;;;3.72;2.03;;;;;;;;;;4994603;28;20250;-68
2023/08/31 13:25:53;;;;;;;4.45;2.10;;;;;;;;;;5002483;28;20224;-68
2023/08/31 13:28:20;;;;;;;4.75;2.05;;;;;;;;;;4998084;28;20277;-65
2023/08/31 13:30:47;;;;;;;5.15;2.20;;;;;;;;;;5002211;28;20205;-68
2023/08/31 13:33:15;;;;;;;6.00;2.20;;;;;;;;;;5000175;28;20283;-70
2023/08/31 13:35:43;;;;;;;5.28;2.50;;;;;;;;;;5002594;28;20498;-68
2023/08/31 13:38:10;;;;;;;3.35;1.88;;;;;;;;;;4999069;28;20201;-69
2023/08/31 13:40:38;;;;;;;5.05;2.10;;;;;;;;;;5001276;28;20207;-68
2023/08/31 13:43:06;;;;;;;3.60;1.90;;;;;;;;;;5002628;28;20208;-69
2023/08/31 13:45:33;;;;;;;4.43;2.25;;;;;;;;;;5000734;28;20205;-68
2023/08/31 13:48:01;;;;;;;3.70;2.20;;;;;;;;;;4998779;28;20248;-68
2023/08/31 13:50:28;;;;;;;4.68;2.22;;;;;;;;;;4999683;28;20291;-68
2023/08/31 13:52:55;;;;;;;3.85;1.90;;;;;;;;;;5005865;28;20217;-69
2023/08/31 13:55:23;;;;;;;4.28;2.10;;;;;;;;;;5004635;28;20228;-68
2023/08/31 13:57:51;;;;;;;4.70;2.20;;;;;;;;;;4999034;28;20504;-68
2023/08/31 14:00:19;;;;;;;4.95;2.03;;;;;;;;;;5004499;28;20205;-68
2023/08/31 14:02:46;;;;;;;4.15;1.95;;;;;;;;;;5002176;28;20213;-68
2023/08/31 14:05:14;;;;;;;3.88;2.03;;;;;;;;;;4999620;28;20212;-68
2023/08/31 14:07:41;;;;;;;4.05;1.88;;;;;;;;;;5003899;28;20316;-67
2023/08/31 14:10:09;;;;;;;5.35;2.30;;;;;;;;;;5000481;28;20292;-68
2023/08/31 14:12:36;;;;;;;4.32;1.92;;;;;;;;;;5001898;28;20267;-68
2023/08/31 14:15:06;;;;;;;4.90;2.35;;;;;;;;;;4997787;28;20210;-70
2023/08/31 14:17:33;;;;;;;6.07;2.28;;;;;;;;;;5000300;28;20201;-67
2023/08/31 14:20:05;;;;;;;3.70;1.92;;;;;;;;;;4998092;28;20223;-68
2023/08/31 14:22:33;;;;;;;5.10;2.42;;;;;;;;;;5002850;28;20281;-66
2023/08/31 14:25:01;;;;;;;4.88;2.00;;;;;;;;;;5001353;28;20204;-67
2023/08/31 14:27:29;;;;;;;6.13;2.40;;;;;;;;;;4999404;28;20229;-67
2023/08/31 14:29:57;;;;;;;5.85;2.42;;;;;;;;;;5001018;28;20205;-68
2023/08/31 14:32:26;;;;;;;6.00;1.92;;;;;;;;;;4999913;28;20210;-68
2023/08/31 14:34:55;;;;;;;4.45;2.30;;;;;;;;;;4997237;28;20300;-67
2023/08/31 14:37:22;;;;;;;7.72;2.10;;;;;;;;;;5001271;28;20216;-69
2023/08/31 14:39:50;;;;;;;3.88;1.95;;;;;;;;;;4998445;28;20205;-68
2023/08/31 14:42:20;;;;;;;5.57;2.53;;;;;;;;;;5005560;28;20204;-68
2023/08/31 14:44:47;;;;;;;8.10;2.75;;;;;;;;;;4996813;28;20207;-69
2023/08/31 14:47:14;;;;;;;4.65;2.00;;;;;;;;;;5012911;28;20197;-67